createdAt,value
2019-03-25T00:00:08.265Z,66.80
2019-03-25T00:02:37.692Z,68.00
2019-03-25T00:05:08.008Z,68.20
2019-03-25T00:07:37.328Z,69.40
2019-03-25T00:10:07.688Z,68.80
2019-03-25T00:12:37.270Z,68.80
2019-03-25T00:15:07.296Z,68.40
2019-03-25T00:17:36.855Z,69.00
2019-03-25T00:20:06.731Z,69.80
2019-03-25T00:22:36.444Z,69.20
2019-03-25T00:25:06.304Z,70.90
2019-03-25T00:27:36.067Z,69.80
2019-03-25T00:30:06.235Z,69.80
2019-03-25T00:32:35.932Z,69.70
2019-03-25T00:35:06.229Z,70.20
2019-03-25T00:37:35.738Z,70.10
2019-03-25T00:40:05.219Z,71.10
2019-03-25T00:42:34.964Z,72.80
2019-03-25T00:45:04.311Z,76.10
2019-03-25T00:47:33.811Z,78.10
2019-03-25T00:50:04.051Z,82.80
2019-03-25T00:52:34.362Z,86.30
2019-03-25T00:55:04.120Z,86.20
2019-03-25T00:57:33.885Z,90.00
2019-03-25T01:00:03.710Z,91.40
2019-03-25T01:02:33.929Z,93.40
2019-03-25T01:05:04.647Z,94.70
2019-03-25T01:07:33.682Z,94.80
2019-03-25T01:10:03.621Z,95.50
2019-03-25T01:12:33.142Z,95.70
2019-03-25T01:15:02.671Z,95.90
2019-03-25T01:17:32.136Z,96.30
2019-03-25T01:20:01.769Z,97.40
2019-03-25T01:22:31.121Z,98.40
2019-03-25T01:25:02.265Z,98.70
2019-03-25T01:27:30.878Z,99.10
2019-03-25T01:30:00.389Z,99.80
2019-03-25T01:32:29.780Z,99.90
2019-03-25T01:34:59.365Z,99.90
2019-03-25T01:37:28.995Z,99.90
2019-03-25T01:39:58.550Z,99.90
2019-03-25T01:42:28.154Z,99.90
2019-03-25T01:44:57.802Z,99.90
2019-03-25T01:47:27.326Z,99.90
2019-03-25T01:49:57.017Z,99.90
2019-03-25T01:52:26.574Z,99.90
2019-03-25T01:54:56.168Z,99.90
2019-03-25T01:57:25.764Z,99.90
2019-03-25T01:59:55.024Z,99.90
2019-03-25T02:02:24.684Z,99.90
2019-03-25T02:04:54.112Z,99.90
2019-03-25T02:07:24.382Z,99.90
2019-03-25T02:09:53.909Z,99.90
2019-03-25T02:12:23.235Z,99.90
2019-03-25T02:14:53.619Z,99.90
2019-03-25T02:17:23.281Z,99.90
2019-03-25T02:19:54.002Z,99.90
2019-03-25T02:22:23.723Z,99.90
2019-03-25T02:24:53.442Z,99.90
2019-03-25T02:27:23.763Z,99.90
2019-03-25T02:29:53.342Z,99.90
2019-03-25T02:32:22.838Z,99.90
2019-03-25T02:34:52.500Z,99.90
2019-03-25T02:37:22.168Z,99.90
2019-03-25T02:39:51.941Z,99.90
2019-03-25T02:42:21.596Z,99.90
2019-03-25T02:44:51.105Z,99.90
2019-03-25T02:47:20.679Z,99.90
2019-03-25T02:49:50.456Z,99.90
2019-03-25T02:52:19.902Z,99.90
2019-03-25T02:54:49.114Z,99.90
2019-03-25T02:57:18.496Z,99.90
2019-03-25T02:59:48.117Z,99.90
2019-03-25T03:02:17.889Z,99.90
2019-03-25T03:04:47.296Z,99.90
2019-03-25T03:07:16.802Z,99.90
2019-03-25T03:09:46.281Z,99.90
2019-03-25T03:12:15.894Z,99.90
2019-03-25T03:14:45.501Z,99.90
2019-03-25T03:17:14.936Z,99.90
2019-03-25T03:19:44.149Z,99.90
2019-03-25T03:22:13.912Z,99.90
2019-03-25T03:24:43.385Z,99.90
2019-03-25T03:27:12.814Z,99.90
2019-03-25T03:29:42.402Z,99.90
2019-03-25T03:32:12.981Z,99.90
2019-03-25T03:34:42.361Z,99.90
2019-03-25T03:37:11.834Z,99.90
2019-03-25T03:39:42.377Z,99.90
2019-03-25T03:42:11.999Z,99.90
2019-03-25T03:44:41.592Z,99.90
2019-03-25T03:47:11.313Z,99.90
2019-03-25T03:49:40.994Z,99.90
2019-03-25T03:52:10.373Z,99.90
2019-03-25T03:54:39.903Z,99.90
2019-03-25T03:57:09.749Z,99.90
2019-03-25T03:59:39.388Z,99.90
2019-03-25T04:02:08.973Z,99.90
2019-03-25T04:04:38.660Z,99.90
2019-03-25T04:07:08.850Z,99.90
2019-03-25T04:09:38.417Z,99.90
2019-03-25T04:12:08.044Z,99.90
2019-03-25T04:14:37.627Z,99.90
2019-03-25T04:17:07.374Z,99.90
2019-03-25T04:19:36.660Z,99.90
2019-03-25T04:22:06.126Z,99.90
2019-03-25T04:24:35.727Z,99.90
2019-03-25T04:27:05.254Z,99.90
2019-03-25T04:29:34.775Z,99.90
2019-03-25T04:32:06.190Z,99.90
2019-03-25T04:34:34.001Z,99.90
2019-03-25T04:37:03.243Z,99.90
2019-03-25T04:39:33.416Z,99.90
2019-03-25T04:42:02.951Z,99.90
2019-03-25T04:44:32.687Z,99.90
2019-03-25T04:47:02.909Z,99.90
2019-03-25T04:49:32.314Z,99.90
2019-03-25T04:52:02.300Z,99.90
2019-03-25T04:54:32.032Z,99.90
2019-03-25T04:57:01.534Z,99.90
2019-03-25T04:59:31.145Z,99.90
2019-03-25T05:02:01.397Z,99.90
2019-03-25T05:04:30.782Z,99.90
2019-03-25T05:07:01.398Z,99.90
2019-03-25T05:09:30.746Z,99.90
2019-03-25T05:12:00.176Z,99.90
2019-03-25T05:14:29.714Z,99.90
2019-03-25T05:16:59.503Z,99.90
2019-03-25T05:19:29.060Z,99.90
2019-03-25T05:21:58.427Z,99.90
2019-03-25T05:24:28.123Z,99.90
2019-03-25T05:26:57.413Z,99.90
2019-03-25T05:29:27.087Z,99.90
2019-03-25T05:31:55.805Z,99.90
2019-03-25T05:34:25.435Z,99.90
2019-03-25T05:36:54.860Z,99.90
2019-03-25T05:39:24.146Z,99.90
2019-03-25T05:41:53.567Z,99.90
2019-03-25T05:44:23.273Z,99.90
2019-03-25T05:46:53.998Z,99.90
2019-03-25T05:49:23.576Z,99.90
2019-03-25T05:51:53.439Z,99.90
2019-03-25T05:54:23.294Z,99.90
2019-03-25T05:57:01.974Z,99.90
2019-03-25T05:59:22.790Z,99.90
2019-03-25T06:01:52.070Z,99.90
2019-03-25T06:04:22.596Z,99.90
2019-03-25T06:06:52.956Z,99.90
2019-03-25T06:09:22.511Z,99.90
2019-03-25T06:11:51.939Z,99.90
2019-03-25T06:14:21.552Z,99.90
2019-03-25T06:16:51.120Z,99.90
2019-03-25T06:19:20.767Z,99.90
2019-03-25T06:21:50.294Z,99.90
2019-03-25T06:24:20.047Z,99.90
2019-03-25T06:26:49.439Z,99.90
2019-03-25T06:29:18.902Z,99.90
2019-03-25T06:31:48.434Z,99.90
2019-03-25T06:34:17.713Z,99.90
2019-03-25T06:36:47.354Z,99.90
2019-03-25T06:39:17.051Z,99.90
2019-03-25T06:41:46.622Z,99.90
2019-03-25T06:44:16.232Z,99.90
2019-03-25T06:46:45.757Z,99.90
2019-03-25T06:49:15.493Z,99.90
2019-03-25T06:51:45.352Z,99.90
2019-03-25T06:54:14.886Z,99.90
2019-03-25T06:56:44.905Z,99.90
2019-03-25T06:59:14.459Z,99.90
2019-03-25T07:01:43.931Z,99.90
2019-03-25T07:04:13.221Z,99.90
2019-03-25T07:06:42.674Z,99.90
2019-03-25T07:09:12.182Z,99.90
2019-03-25T07:11:41.779Z,99.90
2019-03-25T07:14:12.127Z,99.90
2019-03-25T07:16:41.812Z,99.90
2019-03-25T07:19:10.986Z,99.90
2019-03-25T07:21:40.400Z,99.90
2019-03-25T07:24:11.347Z,99.90
2019-03-25T07:26:41.064Z,99.90
2019-03-25T07:29:10.715Z,99.90
2019-03-25T07:31:40.337Z,99.90
2019-03-25T07:34:09.856Z,99.90
2019-03-25T07:36:39.150Z,99.90
2019-03-25T07:39:08.942Z,99.90
2019-03-25T07:41:38.759Z,99.90
2019-03-25T07:44:08.808Z,99.90
2019-03-25T07:46:38.006Z,99.90
2019-03-25T07:49:07.556Z,99.90
2019-03-25T07:51:37.744Z,99.90
2019-03-25T07:54:07.093Z,99.90
2019-03-25T07:56:36.723Z,99.90
2019-03-25T07:59:06.371Z,99.90
2019-03-25T08:01:35.805Z,99.90
2019-03-25T08:04:05.316Z,99.90
2019-03-25T08:06:35.478Z,99.90
2019-03-25T08:09:05.396Z,99.90
2019-03-25T08:11:34.941Z,99.90
2019-03-25T08:14:04.586Z,99.90
2019-03-25T08:16:34.016Z,99.90
2019-03-25T08:19:03.471Z,99.90
2019-03-25T08:21:33.029Z,99.90
2019-03-25T08:24:02.652Z,99.90
2019-03-25T08:26:32.366Z,99.90
2019-03-25T08:29:01.765Z,99.90
2019-03-25T08:31:31.842Z,99.90
2019-03-25T08:34:01.236Z,99.90
2019-03-25T08:36:30.545Z,99.90
2019-03-25T08:38:59.993Z,99.90
2019-03-25T08:41:29.597Z,99.90
2019-03-25T08:43:58.868Z,99.90
2019-03-25T08:46:28.177Z,99.90
2019-03-25T08:48:57.894Z,99.90
2019-03-25T08:51:27.447Z,99.90
2019-03-25T08:53:57.685Z,99.90
2019-03-25T08:56:27.278Z,99.90
2019-03-25T08:58:56.858Z,99.90
2019-03-25T09:01:26.374Z,99.90
2019-03-25T09:03:56.826Z,99.90
2019-03-25T09:06:25.882Z,99.90
2019-03-25T09:08:54.992Z,99.90
2019-03-25T09:11:24.580Z,99.90
2019-03-25T09:13:54.182Z,99.90
2019-03-25T09:16:23.869Z,99.90
2019-03-25T09:18:53.367Z,99.90
2019-03-25T09:21:22.812Z,99.90
2019-03-25T09:23:52.663Z,99.90
2019-03-25T09:26:22.243Z,99.90
2019-03-25T09:28:51.569Z,99.90
2019-03-25T09:31:21.201Z,99.90
2019-03-25T09:33:50.819Z,99.90
2019-03-25T09:36:20.444Z,99.90
2019-03-25T09:38:50.075Z,99.90
2019-03-25T09:41:20.048Z,99.90
2019-03-25T09:43:49.495Z,99.90
2019-03-25T09:46:18.762Z,99.90
2019-03-25T09:48:48.435Z,99.90
2019-03-25T09:51:18.198Z,99.90
2019-03-25T09:53:47.883Z,99.90
2019-03-25T09:56:17.910Z,99.90
2019-03-25T09:58:47.428Z,99.90
2019-03-25T10:01:16.633Z,99.90
2019-03-25T10:03:46.125Z,99.90
2019-03-25T10:06:15.580Z,99.90
2019-03-25T10:08:45.937Z,99.90
2019-03-25T10:11:18.341Z,99.90
2019-03-25T10:13:47.905Z,99.90
2019-03-25T10:16:17.600Z,99.90
2019-03-25T10:18:47.665Z,99.90
2019-03-25T10:21:17.650Z,99.90
2019-03-25T10:23:47.296Z,99.90
2019-03-25T10:26:16.977Z,99.90
2019-03-25T10:28:49.037Z,99.90
2019-03-25T10:31:17.482Z,99.90
2019-03-25T10:33:46.713Z,99.90
2019-03-25T10:36:16.517Z,99.90
2019-03-25T10:38:46.340Z,99.90
2019-03-25T10:41:15.772Z,99.90
2019-03-25T10:43:45.376Z,99.90
2019-03-25T10:46:14.750Z,99.90
2019-03-25T10:48:44.468Z,99.90
2019-03-25T10:51:14.276Z,99.90
2019-03-25T10:53:44.090Z,99.90
2019-03-25T10:56:13.714Z,99.90
2019-03-25T10:58:44.010Z,99.90
2019-03-25T11:01:15.156Z,99.90
2019-03-25T11:03:44.574Z,99.90
2019-03-25T11:06:14.200Z,99.90
2019-03-25T11:08:43.818Z,99.90
2019-03-25T11:11:13.668Z,99.90
2019-03-25T11:13:43.233Z,99.90
2019-03-25T11:16:13.841Z,99.90
2019-03-25T11:18:43.585Z,99.90
2019-03-25T11:21:13.047Z,99.90
2019-03-25T11:23:42.853Z,99.90
2019-03-25T11:26:13.344Z,99.90
2019-03-25T11:28:43.807Z,99.90
2019-03-25T11:31:13.496Z,99.90
2019-03-25T11:33:44.052Z,99.90
2019-03-25T11:36:13.443Z,99.90
2019-03-25T11:38:43.163Z,99.90
2019-03-25T11:41:12.772Z,99.90
2019-03-25T11:43:42.272Z,99.90
2019-03-25T11:46:11.572Z,99.90
2019-03-25T11:48:41.200Z,99.90
2019-03-25T11:51:10.690Z,99.90
2019-03-25T11:53:39.983Z,99.90
2019-03-25T11:56:10.423Z,99.90
2019-03-25T11:58:40.019Z,99.90
2019-03-25T12:01:10.557Z,99.90
2019-03-25T12:03:39.947Z,99.90
2019-03-25T12:06:10.388Z,99.90
2019-03-25T12:08:39.986Z,99.90
2019-03-25T12:11:09.386Z,99.90
2019-03-25T12:13:39.715Z,99.90
2019-03-25T12:16:09.422Z,99.90
2019-03-25T12:18:39.025Z,99.90
2019-03-25T12:21:08.538Z,99.90
2019-03-25T12:23:38.042Z,99.90
2019-03-25T12:26:08.461Z,99.90
2019-03-25T12:28:38.207Z,99.90
2019-03-25T12:31:07.479Z,99.90
2019-03-25T12:33:38.724Z,99.90
2019-03-25T12:36:08.120Z,99.90
2019-03-25T12:38:37.533Z,99.90
2019-03-25T12:41:07.108Z,99.90
2019-03-25T12:43:36.819Z,99.90
2019-03-25T12:46:06.234Z,99.90
2019-03-25T12:48:35.810Z,99.90
2019-03-25T12:51:05.326Z,99.90
2019-03-25T12:53:34.584Z,99.90
2019-03-25T12:56:04.063Z,99.90
2019-03-25T12:58:33.687Z,99.90
2019-03-25T13:01:03.368Z,99.90
2019-03-25T13:03:34.008Z,99.90
2019-03-25T13:06:03.632Z,99.90
2019-03-25T13:08:33.647Z,99.90
2019-03-25T13:11:03.013Z,99.90
2019-03-25T13:13:32.531Z,99.90
2019-03-25T13:16:02.150Z,99.90
2019-03-25T13:18:31.777Z,99.90
2019-03-25T13:21:01.437Z,99.90
2019-03-25T13:23:31.072Z,99.90
2019-03-25T13:26:01.096Z,99.90
2019-03-25T13:28:30.391Z,99.90
2019-03-25T13:30:59.678Z,99.90
2019-03-25T13:33:29.544Z,99.90
2019-03-25T13:35:58.696Z,99.90
2019-03-25T13:38:28.394Z,99.90
2019-03-25T13:40:57.922Z,99.90
2019-03-25T13:43:28.364Z,99.90
2019-03-25T13:46:05.387Z,99.90
2019-03-25T13:48:27.441Z,99.90
2019-03-25T13:50:56.943Z,99.90
2019-03-25T13:53:26.556Z,99.90
2019-03-25T13:55:56.059Z,99.90
2019-03-25T13:58:25.803Z,99.90
2019-03-25T14:00:55.478Z,99.90
2019-03-25T14:03:25.068Z,99.90
2019-03-25T14:05:55.001Z,99.90
2019-03-25T14:08:24.435Z,99.90
2019-03-25T14:10:55.059Z,99.90
2019-03-25T14:13:24.429Z,99.90
2019-03-25T14:15:54.020Z,99.90
2019-03-25T14:18:24.151Z,99.90
2019-03-25T14:20:53.684Z,99.90
2019-03-25T14:23:22.918Z,99.90
2019-03-25T14:25:52.219Z,99.90
2019-03-25T14:28:22.003Z,99.90
2019-03-25T14:30:51.596Z,99.90
2019-03-25T14:33:21.085Z,99.90
2019-03-25T14:35:50.295Z,99.90
2019-03-25T14:38:19.861Z,99.90
2019-03-25T14:40:49.224Z,99.90
2019-03-25T14:43:19.647Z,99.90
2019-03-25T14:45:49.316Z,99.90
2019-03-25T14:48:19.000Z,99.90
2019-03-25T14:50:48.515Z,99.90
2019-03-25T14:53:18.120Z,99.90
2019-03-25T14:55:47.423Z,99.90
2019-03-25T14:58:17.032Z,99.90
2019-03-25T15:00:47.541Z,99.90
2019-03-25T15:03:16.918Z,99.90
2019-03-25T15:05:47.050Z,99.90
2019-03-25T15:08:16.879Z,99.90
2019-03-25T15:10:53.609Z,99.90
2019-03-25T15:13:15.754Z,99.90
2019-03-25T15:15:45.428Z,99.90
2019-03-25T15:18:15.818Z,99.90
2019-03-25T15:20:45.020Z,99.90
2019-03-25T15:23:14.416Z,99.90
2019-03-25T15:25:43.753Z,99.90
2019-03-25T15:28:13.277Z,99.90
2019-03-25T15:30:42.771Z,99.90
2019-03-25T15:33:11.968Z,99.90
2019-03-25T15:35:41.393Z,99.90
2019-03-25T15:38:10.731Z,99.90
2019-03-25T15:40:40.060Z,99.90
2019-03-25T15:43:09.626Z,99.90
2019-03-25T15:45:39.216Z,99.90
2019-03-25T15:48:08.810Z,99.90
2019-03-25T15:50:38.476Z,99.90
2019-03-25T15:53:07.813Z,99.90
2019-03-25T15:55:37.475Z,99.90
2019-03-25T15:58:07.062Z,99.90
2019-03-25T16:00:47.129Z,99.90
2019-03-25T16:03:08.083Z,99.90
2019-03-25T16:05:37.611Z,99.90
2019-03-25T16:08:07.199Z,99.90
2019-03-25T16:10:36.876Z,99.90
2019-03-25T16:13:06.405Z,99.90
2019-03-25T16:15:38.297Z,99.90
2019-03-25T16:18:08.388Z,99.90
2019-03-25T16:20:37.988Z,99.90
2019-03-25T16:23:07.501Z,99.90
2019-03-25T16:25:37.151Z,99.90
2019-03-25T16:28:06.770Z,98.50
2019-03-25T16:30:36.014Z,94.60
2019-03-25T16:33:05.733Z,91.40
2019-03-25T16:35:34.800Z,85.10
2019-03-25T16:38:04.082Z,70.90
2019-03-25T16:40:33.472Z,65.60
2019-03-25T16:43:03.800Z,60.70
2019-03-25T16:45:33.522Z,60.70
2019-03-25T16:48:02.913Z,60.90
2019-03-25T16:50:33.348Z,61.10
2019-03-25T16:53:02.953Z,61.00
2019-03-25T16:55:32.558Z,58.00
2019-03-25T16:58:02.247Z,58.90
2019-03-25T17:00:32.506Z,50.10
2019-03-25T17:03:01.848Z,50.10
2019-03-25T17:05:31.344Z,45.00
2019-03-25T17:08:00.669Z,40.30
2019-03-25T17:10:29.996Z,37.30
2019-03-25T17:13:00.423Z,31.20
2019-03-25T17:15:29.803Z,31.00
2019-03-25T17:17:59.115Z,30.00
2019-03-25T17:20:29.559Z,27.40
2019-03-25T17:22:59.130Z,27.30
2019-03-25T17:25:28.580Z,26.50
2019-03-25T17:27:57.889Z,26.60
2019-03-25T17:30:27.370Z,27.90
2019-03-25T17:32:56.875Z,29.40
2019-03-25T17:35:26.704Z,31.30
2019-03-25T17:37:56.084Z,32.50
2019-03-25T17:40:25.694Z,30.00
2019-03-25T17:42:54.671Z,30.50
2019-03-25T17:45:24.048Z,30.20
2019-03-25T17:47:53.444Z,30.70
2019-03-25T17:50:23.916Z,31.90
2019-03-25T17:52:53.673Z,31.90
2019-03-25T17:55:23.402Z,31.80
2019-03-25T17:57:52.812Z,31.80
2019-03-25T18:03:22.216Z,28.20
2019-03-25T18:05:51.680Z,26.80
2019-03-25T18:08:21.410Z,24.90
2019-03-25T18:10:50.686Z,23.80
2019-03-25T18:13:22.547Z,22.10
2019-03-25T18:15:56.391Z,22.10
2019-03-25T18:18:25.740Z,21.50
2019-03-25T18:20:55.180Z,21.90
2019-03-25T18:23:24.810Z,22.40
2019-03-25T18:25:54.457Z,21.80
2019-03-25T18:28:24.050Z,21.50
2019-03-25T18:30:53.423Z,20.90
2019-03-25T18:33:22.775Z,20.80
2019-03-25T18:35:52.288Z,21.20
2019-03-25T18:38:21.562Z,21.60
2019-03-25T18:40:51.021Z,22.30
2019-03-25T18:43:20.692Z,23.60
2019-03-25T18:45:50.196Z,23.90
2019-03-25T18:48:20.049Z,26.40
2019-03-25T18:50:49.657Z,27.80
2019-03-25T18:53:18.908Z,27.60
2019-03-25T18:55:48.194Z,27.60
2019-03-25T18:58:17.823Z,27.50
2019-03-25T19:00:48.059Z,31.20
2019-03-25T19:03:18.688Z,32.20
2019-03-25T19:05:48.391Z,32.10
2019-03-25T19:08:19.001Z,35.40
2019-03-25T19:10:48.611Z,37.20
2019-03-25T19:13:17.900Z,39.00
2019-03-25T19:15:47.472Z,41.10
2019-03-25T19:18:16.879Z,41.30
2019-03-25T19:20:46.515Z,42.80
2019-03-25T19:23:16.392Z,46.00
2019-03-25T19:25:45.808Z,46.00
2019-03-25T19:28:15.331Z,47.60
2019-03-25T19:30:44.892Z,47.70
2019-03-25T19:33:15.288Z,47.70
2019-03-25T19:35:44.857Z,47.70
2019-03-25T19:38:14.342Z,46.90
2019-03-25T19:40:43.664Z,48.00
2019-03-25T19:43:13.098Z,48.00
2019-03-25T19:45:42.664Z,49.10
2019-03-25T19:48:12.117Z,48.90
2019-03-25T19:50:41.582Z,49.40
2019-03-25T19:53:18.922Z,48.10
2019-03-25T19:55:40.510Z,47.90
2019-03-25T19:58:09.813Z,47.60
2019-03-25T20:00:39.625Z,46.10
2019-03-25T20:03:08.900Z,44.60
2019-03-25T20:05:38.450Z,44.00
2019-03-25T20:08:08.614Z,43.80
2019-03-25T20:10:38.160Z,44.60
2019-03-25T20:13:07.945Z,46.00
2019-03-25T20:15:46.072Z,46.10
2019-03-25T20:18:07.500Z,44.20
2019-03-25T20:20:36.819Z,45.30
2019-03-25T20:23:06.412Z,44.90
2019-03-25T20:25:35.781Z,44.60
2019-03-25T20:28:05.421Z,45.60
2019-03-25T20:30:34.504Z,45.80
2019-03-25T20:33:04.078Z,46.50
2019-03-25T20:35:33.689Z,47.40
2019-03-25T20:38:03.486Z,48.50
2019-03-25T20:40:33.029Z,46.90
2019-03-25T20:43:01.833Z,48.60
2019-03-25T20:45:31.350Z,47.20
2019-03-25T20:48:00.923Z,47.70
2019-03-25T20:50:30.237Z,46.90
2019-03-25T20:52:59.912Z,47.30
2019-03-25T20:55:29.519Z,47.20
2019-03-25T20:57:59.206Z,48.20
2019-03-25T21:00:50.016Z,48.10
2019-03-25T21:03:19.519Z,48.30
2019-03-25T21:05:49.093Z,49.00
2019-03-25T21:08:18.547Z,50.00
2019-03-25T21:10:48.642Z,48.80
2019-03-25T21:13:18.570Z,49.10
2019-03-25T21:15:48.390Z,49.90
2019-03-25T21:18:18.564Z,49.80
2019-03-25T21:20:48.179Z,50.00
2019-03-25T21:23:17.827Z,51.10
2019-03-25T21:25:47.270Z,50.10
2019-03-25T21:28:17.575Z,51.00
2019-03-25T21:30:48.079Z,51.60
2019-03-25T21:33:16.892Z,50.50
2019-03-25T21:35:46.411Z,50.80
2019-03-25T21:38:16.072Z,51.50
2019-03-25T21:40:45.328Z,50.70
2019-03-25T21:43:15.049Z,50.90
2019-03-25T21:45:44.671Z,50.40
2019-03-25T21:48:18.353Z,50.70
2019-03-25T21:50:48.818Z,51.70
2019-03-25T21:53:18.586Z,51.70
2019-03-25T21:55:48.057Z,51.90
2019-03-25T21:58:17.657Z,51.30
2019-03-25T22:00:47.268Z,51.80
2019-03-25T22:03:16.857Z,51.20
2019-03-25T22:05:46.555Z,51.30
2019-03-25T22:08:15.975Z,51.30
2019-03-25T22:10:45.531Z,51.30
2019-03-25T22:13:15.050Z,51.50
2019-03-25T22:15:45.236Z,52.30
2019-03-25T22:18:14.833Z,52.20
2019-03-25T22:20:44.473Z,52.70
2019-03-25T22:23:13.844Z,51.90
2019-03-25T22:25:43.339Z,51.90
2019-03-25T22:28:12.895Z,52.70
2019-03-25T22:30:42.369Z,54.00
2019-03-25T22:33:24.590Z,53.50
2019-03-25T22:35:41.397Z,54.50
2019-03-25T22:38:10.961Z,54.80
2019-03-25T22:40:41.625Z,55.20
2019-03-25T22:43:11.069Z,56.20
2019-03-25T22:45:40.311Z,56.90
2019-03-25T22:48:09.675Z,57.20
2019-03-25T22:50:39.186Z,58.50
2019-03-25T22:53:08.529Z,58.40
2019-03-25T22:55:45.454Z,58.40
2019-03-25T22:58:15.306Z,59.10
2019-03-25T23:00:44.999Z,59.10
2019-03-25T23:03:14.298Z,60.20
2019-03-25T23:05:43.778Z,59.70
2019-03-25T23:08:13.409Z,60.20
2019-03-25T23:10:42.977Z,60.70
2019-03-25T23:13:12.559Z,61.80
2019-03-25T23:15:42.014Z,62.00
2019-03-25T23:18:11.652Z,62.60
2019-03-25T23:20:40.973Z,62.80
2019-03-25T23:23:18.515Z,64.00
2019-03-25T23:25:48.405Z,65.20
2019-03-25T23:28:17.839Z,65.00
2019-03-25T23:30:47.209Z,66.80
2019-03-25T23:33:16.929Z,67.80
2019-03-25T23:35:46.860Z,69.20
2019-03-25T23:38:17.307Z,72.10
2019-03-25T23:40:46.743Z,72.10
2019-03-25T23:43:16.015Z,73.00
2019-03-25T23:45:45.556Z,72.70
2019-03-25T23:48:15.099Z,73.40
2019-03-25T23:50:44.919Z,73.10
2019-03-25T23:53:14.347Z,73.20
2019-03-25T23:55:43.965Z,73.90
2019-03-25T23:58:13.482Z,74.60
